Time;durP1;ratioP1;P1;durP2;ratioP2;P2;SDS_P1;SDS_P2;PMS_P1;PMS_P2;Temp;Humidity;BMP_temperature;BMP_pressure;BME280_temperature;BME280_humidity;BME280_pressure;Samples;Min_cycle;Max_cycle;Signal;HPM_P1;HPM_P2
2022/04/14 00:00:55;;;;;;;15.02;5.45;;;;;;;;;;4973316;28;20027;-63
2022/04/14 00:03:22;;;;;;;8.80;3.88;;;;;;;;;;4973897;28;20070;-63
2022/04/14 00:05:48;;;;;;;7.90;3.45;;;;;;;;;;4977501;28;20027;-63
2022/04/14 00:08:14;;;;;;;9.98;4.53;;;;;;;;;;4992971;28;20026;-63
2022/04/14 00:10:40;;;;;;;10.38;4.30;;;;;;;;;;4989041;28;20511;-63
2022/04/14 00:13:06;;;;;;;16.42;6.80;;;;;;;;;;4973353;28;20055;-63
2022/04/14 00:15:32;;;;;;;8.85;4.13;;;;;;;;;;4973457;28;20023;-63
2022/04/14 00:17:58;;;;;;;9.90;4.30;;;;;;;;;;4973517;28;20110;-63
2022/04/14 00:20:25;;;;;;;9.57;4.38;;;;;;;;;;4973552;28;20039;-63
2022/04/14 00:22:51;;;;;;;12.52;3.70;;;;;;;;;;4981455;28;20033;-63
2022/04/14 00:25:17;;;;;;;10.95;4.47;;;;;;;;;;4992701;28;20419;-63
2022/04/14 00:27:43;;;;;;;8.10;3.97;;;;;;;;;;4992556;28;20368;-63
2022/04/14 00:30:10;;;;;;;8.93;3.80;;;;;;;;;;4992375;28;20041;-63
2022/04/14 00:32:36;;;;;;;10.48;4.00;;;;;;;;;;4992906;28;20054;-63
2022/04/14 00:35:03;;;;;;;8.43;4.13;;;;;;;;;;4984955;28;20023;-63
2022/04/14 00:37:29;;;;;;;12.55;4.28;;;;;;;;;;4973457;28;20034;-63
2022/04/14 00:39:55;;;;;;;12.38;4.13;;;;;;;;;;4973152;28;20041;-63
2022/04/14 00:42:21;;;;;;;8.50;3.85;;;;;;;;;;4973224;28;20031;-63
2022/04/14 00:44:47;;;;;;;9.70;4.05;;;;;;;;;;4973046;28;20074;-63
2022/04/14 00:47:14;;;;;;;21.27;6.05;;;;;;;;;;4972787;28;20106;-63
2022/04/14 00:49:40;;;;;;;6.85;3.65;;;;;;;;;;4972834;28;20045;-63
2022/04/14 00:52:06;;;;;;;12.32;4.22;;;;;;;;;;4984284;28;20023;-63
2022/04/14 00:54:34;;;;;;;11.88;4.03;;;;;;;;;;4992260;28;20050;-63
2022/04/14 00:57:00;;;;;;;12.43;4.68;;;;;;;;;;4991504;28;20046;-63
2022/04/14 00:59:27;;;;;;;17.70;5.03;;;;;;;;;;4991446;28;20030;-63
2022/04/14 01:01:53;;;;;;;28.00;7.03;;;;;;;;;;4991812;28;20030;-63
2022/04/14 01:04:20;;;;;;;21.45;5.38;;;;;;;;;;4989357;28;20026;-63
2022/04/14 01:06:46;;;;;;;20.05;5.45;;;;;;;;;;4991099;28;20091;-63
2022/04/14 01:09:16;;;;;;;22.55;6.82;;;;;;;;;;4992037;28;20472;-63
2022/04/14 01:11:44;;;;;;;16.65;5.38;;;;;;;;;;4992241;28;20026;-63
2022/04/14 01:14:30;;;;;;;17.70;5.03;;;;;;;;;;4996299;28;20019;-63
2022/04/14 01:16:57;;;;;;;22.33;6.55;;;;;;;;;;5074105;28;20119;-63
2022/04/14 01:19:24;;;;;;;46.63;7.10;;;;;;;;;;5074287;28;20108;-63
2022/04/14 01:22:08;;;;;;;59.85;8.52;;;;;;;;;;4979444;28;20586;-63
2022/04/14 01:24:35;;;;;;;77.43;8.60;;;;;;;;;;4992000;28;20034;-63
2022/04/14 01:27:01;;;;;;;108.75;11.32;;;;;;;;;;4991349;28;20425;-63
2022/04/14 01:29:28;;;;;;;79.25;9.40;;;;;;;;;;4992235;28;20113;-63
2022/04/14 01:31:56;;;;;;;70.43;7.90;;;;;;;;;;4990603;28;20030;-63
2022/04/14 01:34:22;;;;;;;30.65;6.55;;;;;;;;;;4972227;28;20062;-63
2022/04/14 01:36:48;;;;;;;21.42;6.25;;;;;;;;;;4972462;28;20480;-63
2022/04/14 01:39:14;;;;;;;34.22;7.32;;;;;;;;;;4972224;28;20503;-63
2022/04/14 01:41:45;;;;;;;35.33;7.38;;;;;;;;;;4972015;28;20069;-63
2022/04/14 01:44:11;;;;;;;41.95;7.65;;;;;;;;;;4971796;28;20039;-63
2022/04/14 01:46:38;;;;;;;58.08;8.10;;;;;;;;;;4972091;28;20035;-63
2022/04/14 01:49:04;;;;;;;32.08;6.95;;;;;;;;;;4980433;28;20041;-63
2022/04/14 01:51:31;;;;;;;52.58;8.20;;;;;;;;;;4991500;28;20023;-63
2022/04/14 01:53:57;;;;;;;37.95;7.50;;;;;;;;;;4990094;28;20049;-63
2022/04/14 01:56:23;;;;;;;58.22;8.73;;;;;;;;;;4990701;28;20411;-63
2022/04/14 01:58:50;;;;;;;33.17;8.13;;;;;;;;;;4991503;28;20046;-63
2022/04/14 02:01:16;;;;;;;29.50;6.95;;;;;;;;;;4986181;28;20034;-63
2022/04/14 02:03:42;;;;;;;20.05;6.50;;;;;;;;;;4971863;28;20428;-63
2022/04/14 02:06:09;;;;;;;21.58;7.80;;;;;;;;;;4971658;28;20035;-63
2022/04/14 02:08:35;;;;;;;20.38;6.15;;;;;;;;;;4970949;28;20027;-63
2022/04/14 02:11:02;;;;;;;18.38;7.18;;;;;;;;;;4971392;28;20027;-63
2022/04/14 02:13:29;;;;;;;25.65;7.03;;;;;;;;;;4971861;28;20453;-63
2022/04/14 02:15:55;;;;;;;36.70;7.57;;;;;;;;;;4971725;28;20072;-63
2022/04/14 02:18:21;;;;;;;66.43;8.63;;;;;;;;;;4972765;28;20038;-63
2022/04/14 02:20:48;;;;;;;36.17;8.02;;;;;;;;;;4971718;28;20033;-63
2022/04/14 02:23:14;;;;;;;39.92;7.25;;;;;;;;;;4971609;28;20125;-63
2022/04/14 02:25:40;;;;;;;41.35;8.73;;;;;;;;;;4971463;28;20072;-63
2022/04/14 02:28:06;;;;;;;69.95;9.27;;;;;;;;;;4971544;28;20509;-63
2022/04/14 02:30:35;;;;;;;29.73;6.20;;;;;;;;;;4977523;28;20027;-63
2022/04/14 02:33:01;;;;;;;59.15;7.78;;;;;;;;;;4971653;28;20031;-63
2022/04/14 02:35:27;;;;;;;28.67;6.53;;;;;;;;;;4971498;28;20031;-63
2022/04/14 02:37:56;;;;;;;41.58;6.90;;;;;;;;;;4978311;28;20046;-63
2022/04/14 02:40:24;;;;;;;85.78;8.13;;;;;;;;;;4990353;28;20081;-63
2022/04/14 02:42:50;;;;;;;64.03;8.57;;;;;;;;;;4990753;28;20038;-63
2022/04/14 02:45:16;;;;;;;101.43;11.35;;;;;;;;;;4990740;28;20062;-63
2022/04/14 02:47:42;;;;;;;131.60;9.65;;;;;;;;;;4977215;28;20027;-63
2022/04/14 02:50:08;;;;;;;63.30;7.50;;;;;;;;;;4971228;28;20094;-63
2022/04/14 02:52:35;;;;;;;65.10;6.57;;;;;;;;;;4971392;28;20054;-63
2022/04/14 02:55:01;;;;;;;67.72;7.53;;;;;;;;;;4984028;28;20540;-63
2022/04/14 02:57:27;;;;;;;65.50;6.95;;;;;;;;;;4990330;28;20069;-63
2022/04/14 02:59:53;;;;;;;35.28;6.15;;;;;;;;;;4971441;28;20092;-63
2022/04/14 03:02:19;;;;;;;44.50;6.60;;;;;;;;;;4971043;28;20049;-63
2022/04/14 03:04:45;;;;;;;20.88;5.07;;;;;;;;;;4971095;28;20031;-63
2022/04/14 03:07:11;;;;;;;43.67;6.03;;;;;;;;;;4970952;28;20126;-63
2022/04/14 03:09:37;;;;;;;33.35;6.40;;;;;;;;;;4970748;28;20096;-63
2022/04/14 03:12:04;;;;;;;11.45;5.10;;;;;;;;;;4971110;28;20076;-63
2022/04/14 03:14:30;;;;;;;18.38;5.18;;;;;;;;;;4970996;28;20105;-63
2022/04/14 03:16:57;;;;;;;9.90;4.93;;;;;;;;;;4986918;28;20039;-63
2022/04/14 03:19:23;;;;;;;30.88;7.22;;;;;;;;;;4991714;28;20022;-63
2022/04/14 03:21:50;;;;;;;44.85;7.53;;;;;;;;;;4993875;28;20038;-63
2022/04/14 03:24:16;;;;;;;54.05;7.72;;;;;;;;;;4993356;28;20097;-63
2022/04/14 03:26:42;;;;;;;26.63;6.45;;;;;;;;;;4993667;28;20041;-63
2022/04/14 03:29:08;;;;;;;18.30;5.88;;;;;;;;;;4977811;28;20046;-63
2022/04/14 03:31:34;;;;;;;17.40;5.82;;;;;;;;;;4974298;28;20031;-63
2022/04/14 03:34:01;;;;;;;35.80;7.03;;;;;;;;;;4974215;28;20038;-63
2022/04/14 03:36:27;;;;;;;26.85;7.22;;;;;;;;;;4973871;28;20030;-63
2022/04/14 03:38:53;;;;;;;16.27;5.28;;;;;;;;;;4973927;28;20431;-63
2022/04/14 03:41:19;;;;;;;10.20;5.65;;;;;;;;;;4974056;28;20042;-63
2022/04/14 03:43:45;;;;;;;22.73;5.53;;;;;;;;;;4974097;28;20030;-63
2022/04/14 03:46:14;;;;;;;11.80;5.38;;;;;;;;;;4992948;28;20026;-63
2022/04/14 03:48:42;;;;;;;9.75;5.05;;;;;;;;;;4992565;28;20015;-63
2022/04/14 03:51:09;;;;;;;14.05;5.80;;;;;;;;;;4985976;28;20035;-63
2022/04/14 03:53:35;;;;;;;7.72;4.78;;;;;;;;;;4975116;28;20046;-63
2022/04/14 03:56:01;;;;;;;11.80;5.00;;;;;;;;;;4993191;28;20129;-63
2022/04/14 03:58:27;;;;;;;12.05;4.80;;;;;;;;;;4992951;28;20109;-63
2022/04/14 04:00:54;;;;;;;9.57;4.97;;;;;;;;;;4993313;28;20022;-63
2022/04/14 04:03:20;;;;;;;9.32;5.35;;;;;;;;;;4975717;28;20054;-63
2022/04/14 04:05:46;;;;;;;7.22;4.28;;;;;;;;;;4973597;28;20023;-63
2022/04/14 04:08:12;;;;;;;9.23;4.35;;;;;;;;;;4973343;28;20062;-63
2022/04/14 04:10:38;;;;;;;7.75;3.95;;;;;;;;;;4973630;28;20023;-63
2022/04/14 04:13:04;;;;;;;8.20;4.30;;;;;;;;;;4973833;28;20027;-63
2022/04/14 04:15:30;;;;;;;9.27;4.28;;;;;;;;;;4973469;28;20476;-63
2022/04/14 04:17:56;;;;;;;9.00;4.55;;;;;;;;;;4973692;28;20022;-63
2022/04/14 04:20:23;;;;;;;6.40;3.80;;;;;;;;;;4992175;28;20128;-63
2022/04/14 04:22:49;;;;;;;9.07;4.88;;;;;;;;;;4990533;28;20124;-63
2022/04/14 04:25:15;;;;;;;8.25;3.75;;;;;;;;;;4989898;28;20028;-63
2022/04/14 04:27:41;;;;;;;9.15;3.88;;;;;;;;;;4973060;28;20033;-63
2022/04/14 04:30:08;;;;;;;9.65;4.72;;;;;;;;;;4973140;28;20034;-63
2022/04/14 04:32:34;;;;;;;6.80;4.20;;;;;;;;;;4973154;28;20530;-63
2022/04/14 04:35:01;;;;;;;6.38;3.60;;;;;;;;;;4973539;28;20030;-63
2022/04/14 04:37:27;;;;;;;6.57;3.72;;;;;;;;;;4972815;28;20081;-63
2022/04/14 04:39:53;;;;;;;6.22;4.47;;;;;;;;;;4973246;28;20031;-63
2022/04/14 04:42:19;;;;;;;7.82;4.40;;;;;;;;;;4972868;28;20035;-63
2022/04/14 04:44:45;;;;;;;7.10;4.07;;;;;;;;;;4992106;28;20199;-63
2022/04/14 04:47:12;;;;;;;5.95;4.00;;;;;;;;;;4989609;28;20031;-63
2022/04/14 04:49:38;;;;;;;6.78;3.67;;;;;;;;;;4972996;28;20035;-63
2022/04/14 04:52:04;;;;;;;8.10;4.25;;;;;;;;;;4972941;28;20388;-63
2022/04/14 04:54:30;;;;;;;6.55;3.60;;;;;;;;;;4975312;28;20031;-63
2022/04/14 04:56:56;;;;;;;6.45;4.00;;;;;;;;;;4972942;28;20516;-63
2022/04/14 04:59:22;;;;;;;9.48;4.03;;;;;;;;;;4972893;28;20443;-63
2022/04/14 05:01:48;;;;;;;7.13;3.83;;;;;;;;;;4973152;28;20027;-63
2022/04/14 05:04:14;;;;;;;10.13;4.00;;;;;;;;;;4972636;28;20031;-63
2022/04/14 05:06:41;;;;;;;9.85;4.88;;;;;;;;;;4972707;28;20038;-63
2022/04/14 05:09:07;;;;;;;9.73;4.50;;;;;;;;;;4973044;28;20457;-63
2022/04/14 05:11:34;;;;;;;9.82;3.65;;;;;;;;;;4972473;28;20035;-63
2022/04/14 05:14:01;;;;;;;7.25;4.53;;;;;;;;;;4972772;28;20537;-63
2022/04/14 05:16:27;;;;;;;6.72;3.97;;;;;;;;;;4972612;28;20026;-63
2022/04/14 05:18:53;;;;;;;8.73;3.90;;;;;;;;;;4982913;28;20026;-63
2022/04/14 05:21:19;;;;;;;10.68;4.13;;;;;;;;;;4992045;28;20049;-63
2022/04/14 05:23:46;;;;;;;10.40;4.68;;;;;;;;;;4990625;28;20026;-63
2022/04/14 05:26:12;;;;;;;7.20;3.70;;;;;;;;;;4990167;28;20041;-63
2022/04/14 05:28:38;;;;;;;9.35;4.45;;;;;;;;;;4990343;28;20130;-63
2022/04/14 05:31:04;;;;;;;8.55;4.30;;;;;;;;;;4983246;28;20027;-63
2022/04/14 05:33:30;;;;;;;9.43;4.43;;;;;;;;;;4977316;28;20047;-63
2022/04/14 05:35:56;;;;;;;8.20;4.15;;;;;;;;;;4985451;28;20029;-63
2022/04/14 05:38:23;;;;;;;9.65;4.40;;;;;;;;;;4981113;28;20019;-63
2022/04/14 05:40:50;;;;;;;7.85;4.03;;;;;;;;;;4978561;28;20038;-63
2022/04/14 05:43:17;;;;;;;10.32;4.50;;;;;;;;;;4976441;28;20035;-63
2022/04/14 05:45:50;;;;;;;8.23;4.90;;;;;;;;;;4976453;28;20033;-63
2022/04/14 05:48:16;;;;;;;7.68;4.13;;;;;;;;;;4977673;28;20431;-63
2022/04/14 05:50:43;;;;;;;6.75;3.83;;;;;;;;;;4975858;28;20055;-63
2022/04/14 05:53:10;;;;;;;5.88;3.90;;;;;;;;;;4984371;28;20033;-63
2022/04/14 05:55:36;;;;;;;9.38;4.05;;;;;;;;;;4973135;28;20084;-63
2022/04/14 05:58:06;;;;;;;6.45;4.10;;;;;;;;;;4983473;28;20046;-63
2022/04/14 06:00:32;;;;;;;7.35;3.92;;;;;;;;;;4976355;28;20035;-63
2022/04/14 06:02:59;;;;;;;12.20;4.75;;;;;;;;;;4971443;28;20043;-63
2022/04/14 06:05:29;;;;;;;8.25;4.43;;;;;;;;;;4986125;28;20022;-63
2022/04/14 06:07:55;;;;;;;8.80;4.53;;;;;;;;;;4971661;28;20038;-63
2022/04/14 06:10:22;;;;;;;8.52;3.97;;;;;;;;;;4976852;28;21513;-63
2022/04/14 06:12:49;;;;;;;10.27;4.25;;;;;;;;;;4978835;28;20030;-63
2022/04/14 06:15:15;;;;;;;6.00;4.03;;;;;;;;;;4970863;28;20057;-63
2022/04/14 06:17:45;;;;;;;6.25;3.85;;;;;;;;;;4971683;28;20050;-64
2022/04/14 06:20:12;;;;;;;7.15;3.92;;;;;;;;;;4983345;28;20034;-64
2022/04/14 06:22:39;;;;;;;9.05;4.38;;;;;;;;;;4982949;28;20079;-64
2022/04/14 06:25:05;;;;;;;8.70;3.70;;;;;;;;;;4971793;28;20034;-64
2022/04/14 06:27:32;;;;;;;6.25;3.42;;;;;;;;;;4980289;28;20481;-64
2022/04/14 06:29:58;;;;;;;8.68;3.88;;;;;;;;;;4977191;28;20117;-64
2022/04/14 06:32:24;;;;;;;5.65;3.38;;;;;;;;;;4982802;28;20023;-64
2022/04/14 06:34:50;;;;;;;7.75;3.88;;;;;;;;;;4970718;28;20110;-64
2022/04/14 06:37:16;;;;;;;6.97;3.92;;;;;;;;;;4971424;28;20031;-64
2022/04/14 06:39:42;;;;;;;4.47;3.40;;;;;;;;;;4970987;28;20045;-64
2022/04/14 06:42:08;;;;;;;6.57;3.45;;;;;;;;;;4970989;28;20106;-64
2022/04/14 06:44:34;;;;;;;4.55;3.20;;;;;;;;;;4982576;28;20372;-64
2022/04/14 06:47:00;;;;;;;5.18;3.30;;;;;;;;;;4988224;28;20038;-64
2022/04/14 06:49:27;;;;;;;3.92;2.83;;;;;;;;;;4984637;28;20048;-64
2022/04/14 06:51:53;;;;;;;6.80;3.00;;;;;;;;;;4989378;28;20095;-64
2022/04/14 06:54:19;;;;;;;5.22;3.67;;;;;;;;;;4975367;28;20546;-64
2022/04/14 06:56:45;;;;;;;6.45;3.33;;;;;;;;;;4971707;28;20062;-64
2022/04/14 06:59:11;;;;;;;5.60;3.38;;;;;;;;;;4973535;28;20035;-64
2022/04/14 07:01:37;;;;;;;5.15;3.25;;;;;;;;;;4977502;28;20040;-64
2022/04/14 07:04:03;;;;;;;4.47;3.50;;;;;;;;;;4981164;28;20026;-64
2022/04/14 07:06:29;;;;;;;5.07;3.30;;;;;;;;;;4975508;28;20042;-64
2022/04/14 07:08:56;;;;;;;10.25;3.72;;;;;;;;;;4986615;28;20531;-65
2022/04/14 07:11:22;;;;;;;6.95;3.70;;;;;;;;;;4989315;28;20037;-65
2022/04/14 07:13:48;;;;;;;9.65;3.85;;;;;;;;;;4974173;28;20030;-65
2022/04/14 07:16:14;;;;;;;12.80;3.90;;;;;;;;;;4983329;28;20041;-65
2022/04/14 07:18:40;;;;;;;6.40;3.67;;;;;;;;;;4981466;28;20034;-65
2022/04/14 07:21:06;;;;;;;6.97;3.75;;;;;;;;;;4975904;28;20027;-65
2022/04/14 07:23:33;;;;;;;9.60;3.63;;;;;;;;;;4985375;28;20373;-65
2022/04/14 07:25:59;;;;;;;11.48;4.00;;;;;;;;;;4970979;28;20022;-65
2022/04/14 07:28:25;;;;;;;9.68;3.92;;;;;;;;;;4969541;28;20103;-65
2022/04/14 07:30:51;;;;;;;9.75;4.35;;;;;;;;;;4973794;28;20605;-65
2022/04/14 07:33:17;;;;;;;12.32;4.00;;;;;;;;;;4971706;28;20046;-64
2022/04/14 07:35:45;;;;;;;16.17;5.18;;;;;;;;;;4995530;28;20399;-64
2022/04/14 07:38:13;;;;;;;9.50;3.65;;;;;;;;;;4993990;28;20523;-64
2022/04/14 07:40:39;;;;;;;14.10;3.83;;;;;;;;;;4982272;28;20506;-64
2022/04/14 07:43:05;;;;;;;8.38;5.18;;;;;;;;;;4979434;28;20113;-64
2022/04/14 07:45:31;;;;;;;5.45;3.20;;;;;;;;;;4972399;28;20040;-64
2022/04/14 07:47:58;;;;;;;6.35;3.85;;;;;;;;;;4969648;28;20539;-62
2022/04/14 07:50:24;;;;;;;8.57;3.40;;;;;;;;;;4980910;28;20103;-63
2022/04/14 07:52:50;;;;;;;6.90;3.70;;;;;;;;;;4985709;28;20123;-63
2022/04/14 07:55:23;;;;;;;12.95;3.55;;;;;;;;;;4974152;28;20594;-63
2022/04/14 07:57:50;;;;;;;6.25;3.60;;;;;;;;;;4972433;28;20058;-63
2022/04/14 08:00:16;;;;;;;10.75;4.50;;;;;;;;;;4968881;28;20063;-63
2022/04/14 08:02:54;;;;;;;10.52;4.68;;;;;;;;;;4975619;28;20046;-63
2022/04/14 08:05:22;;;;;;;7.18;3.80;;;;;;;;;;4971886;28;20066;-63
2022/04/14 08:07:48;;;;;;;19.88;3.85;;;;;;;;;;4977273;28;20046;-63
2022/04/14 08:10:14;;;;;;;7.95;3.17;;;;;;;;;;4986441;28;20152;-64
2022/04/14 08:12:40;;;;;;;9.30;4.07;;;;;;;;;;4981788;28;20464;-64
2022/04/14 08:15:07;;;;;;;11.13;4.10;;;;;;;;;;4973364;28;20038;-64
2022/04/14 08:17:34;;;;;;;14.82;3.97;;;;;;;;;;4975698;28;20049;-63
2022/04/14 08:20:00;;;;;;;9.10;3.78;;;;;;;;;;4980494;28;20034;-64
2022/04/14 08:22:26;;;;;;;12.05;3.97;;;;;;;;;;4987540;28;20054;-63
2022/04/14 08:24:52;;;;;;;8.93;3.50;;;;;;;;;;4987551;28;20121;-63
2022/04/14 08:27:18;;;;;;;9.35;3.75;;;;;;;;;;4982281;28;20032;-63
2022/04/14 08:29:44;;;;;;;10.70;3.83;;;;;;;;;;4983899;28;20023;-63
2022/04/14 08:32:11;;;;;;;6.55;3.63;;;;;;;;;;4983353;28;20057;-63
2022/04/14 08:34:37;;;;;;;7.78;3.92;;;;;;;;;;4972016;28;20031;-63
2022/04/14 08:37:03;;;;;;;10.95;3.60;;;;;;;;;;4972412;28;20109;-63
2022/04/14 08:39:30;;;;;;;9.23;4.18;;;;;;;;;;4975807;28;20386;-63
2022/04/14 08:42:01;;;;;;;12.63;3.63;;;;;;;;;;4983569;28;20083;-63
2022/04/14 08:44:30;;;;;;;6.35;3.97;;;;;;;;;;4983065;28;20031;-63
2022/04/14 08:46:58;;;;;;;6.57;3.00;;;;;;;;;;4977741;28;20026;-63
2022/04/14 08:49:24;;;;;;;7.05;3.25;;;;;;;;;;4972095;28;20058;-63
2022/04/14 08:51:51;;;;;;;5.97;3.10;;;;;;;;;;4983888;28;20488;-63
2022/04/14 08:54:19;;;;;;;7.30;3.15;;;;;;;;;;4975427;28;20030;-63
2022/04/14 08:56:46;;;;;;;7.03;3.17;;;;;;;;;;4972094;28;20042;-63
2022/04/14 08:59:13;;;;;;;6.90;3.60;;;;;;;;;;4985515;28;20113;-63
2022/04/14 09:01:39;;;;;;;8.23;2.80;;;;;;;;;;4973088;28;20396;-63
2022/04/14 09:04:06;;;;;;;5.80;2.22;;;;;;;;;;4976590;28;20053;-63
2022/04/14 09:06:32;;;;;;;6.38;2.28;;;;;;;;;;4975633;28;20039;-61
2022/04/14 09:09:01;;;;;;;6.43;2.03;;;;;;;;;;4982896;28;20046;-61
2022/04/14 09:11:29;;;;;;;6.22;1.92;;;;;;;;;;4977973;28;20407;-61
2022/04/14 09:13:55;;;;;;;9.02;2.05;;;;;;;;;;4973480;28;20054;-61
2022/04/14 09:16:21;;;;;;;5.90;1.98;;;;;;;;;;4972970;28;20026;-61
2022/04/14 09:18:47;;;;;;;3.97;1.77;;;;;;;;;;4978434;28;20042;-61
2022/04/14 09:21:15;;;;;;;6.88;2.40;;;;;;;;;;4984439;28;20056;-61
2022/04/14 09:23:49;;;;;;;5.22;1.73;;;;;;;;;;4981794;28;20045;-61
2022/04/14 09:26:22;;;;;;;5.60;1.70;;;;;;;;;;4989383;28;20023;-61
2022/04/14 09:29:01;;;;;;;12.00;2.67;;;;;;;;;;4977244;28;20443;-61
2022/04/14 09:31:28;;;;;;;6.30;2.53;;;;;;;;;;4976943;28;20030;-61
2022/04/14 09:33:55;;;;;;;5.03;3.17;;;;;;;;;;4981585;28;20058;-61
2022/04/14 09:36:23;;;;;;;6.57;2.10;;;;;;;;;;4979648;28;20070;-61
2022/04/14 09:39:00;;;;;;;7.25;2.05;;;;;;;;;;4984245;28;20089;-61
2022/04/14 09:41:39;;;;;;;6.07;1.70;;;;;;;;;;4970435;28;20029;-61
2022/04/14 09:44:09;;;;;;;5.95;2.28;;;;;;;;;;4971090;28;20027;-61
2022/04/14 09:46:36;;;;;;;6.63;1.70;;;;;;;;;;4982201;28;20023;-61
2022/04/14 09:49:07;;;;;;;12.02;4.45;;;;;;;;;;4977798;28;20018;-61
2022/04/14 09:51:35;;;;;;;5.43;1.40;;;;;;;;;;4980286;28;20045;-61
2022/04/14 09:54:05;;;;;;;6.13;1.50;;;;;;;;;;4972687;28;20415;-61
2022/04/14 09:56:39;;;;;;;1.95;1.13;;;;;;;;;;4973324;28;20503;-61
2022/04/14 09:59:07;;;;;;;5.72;2.03;;;;;;;;;;4980130;28;20046;-62
2022/04/14 10:01:34;;;;;;;2.28;1.10;;;;;;;;;;5019009;28;20076;-61
2022/04/14 10:04:01;;;;;;;3.15;1.27;;;;;;;;;;4972259;28;20042;-61
2022/04/14 10:06:27;;;;;;;3.05;1.42;;;;;;;;;;4971015;28;20105;-62
2022/04/14 10:08:53;;;;;;;3.63;0.85;;;;;;;;;;4984624;28;20042;-61
2022/04/14 10:11:28;;;;;;;4.35;1.10;;;;;;;;;;4977812;28;20019;-61
2022/04/14 10:13:54;;;;;;;2.22;1.30;;;;;;;;;;4976598;28;20058;-60
2022/04/14 10:16:23;;;;;;;5.38;1.33;;;;;;;;;;4970916;28;20384;-61
2022/04/14 10:18:52;;;;;;;3.47;0.88;;;;;;;;;;4981692;28;20096;-61
2022/04/14 10:21:19;;;;;;;1.80;1.00;;;;;;;;;;4976175;28;20019;-61
2022/04/14 10:23:46;;;;;;;2.65;0.90;;;;;;;;;;4979583;28;20079;-61
2022/04/14 10:26:14;;;;;;;3.15;1.00;;;;;;;;;;4975287;28;20023;-61
2022/04/14 10:28:40;;;;;;;2.67;1.00;;;;;;;;;;4974395;28;20034;-61
2022/04/14 10:31:06;;;;;;;2.40;1.00;;;;;;;;;;4974672;28;20026;-61
2022/04/14 10:33:33;;;;;;;6.53;1.38;;;;;;;;;;4973972;28;20018;-61
2022/04/14 10:35:59;;;;;;;4.40;1.40;;;;;;;;;;4976929;28;20503;-61
2022/04/14 10:38:28;;;;;;;1.38;0.82;;;;;;;;;;4976615;28;20045;-61
2022/04/14 10:40:57;;;;;;;2.55;0.82;;;;;;;;;;4970199;28;20749;-61
2022/04/14 10:43:24;;;;;;;3.35;0.90;;;;;;;;;;4976778;28;20045;-61
2022/04/14 10:45:51;;;;;;;6.50;0.80;;;;;;;;;;4978520;28;20113;-61
2022/04/14 10:48:36;;;;;;;5.00;0.90;;;;;;;;;;4972540;28;20476;-61
2022/04/14 10:51:23;;;;;;;4.05;0.85;;;;;;;;;;4972153;28;20027;-61
2022/04/14 10:53:49;;;;;;;1.35;0.80;;;;;;;;;;4971585;28;20460;-61
2022/04/14 10:56:41;;;;;;;1.95;0.80;;;;;;;;;;4990029;28;20049;-61
2022/04/14 10:59:12;;;;;;;1.17;0.80;;;;;;;;;;4974400;28;20100;-61
2022/04/14 11:04:31;;;;;;;2.33;0.80;;;;;;;;;;4980289;28;20015;-61
2022/04/14 11:07:10;;;;;;;3.10;1.17;;;;;;;;;;4981879;28;20030;-61
2022/04/14 11:09:39;;;;;;;5.85;1.35;;;;;;;;;;4971422;28;20023;-62
2022/04/14 11:12:16;;;;;;;2.90;1.13;;;;;;;;;;4979694;28;20035;-61
2022/04/14 11:14:56;;;;;;;4.63;1.25;;;;;;;;;;4990410;28;20617;-61
2022/04/14 11:17:48;;;;;;;4.88;1.13;;;;;;;;;;4980598;28;20030;-61
2022/04/14 11:20:19;;;;;;;4.43;1.13;;;;;;;;;;4993650;28;20126;-65
2022/04/14 11:23:04;;;;;;;1.50;0.80;;;;;;;;;;4982162;28;20038;-62
2022/04/14 11:25:42;;;;;;;6.55;1.70;;;;;;;;;;4979650;28;20038;-60
2022/04/14 11:28:18;;;;;;;3.92;0.77;;;;;;;;;;4976299;28;20030;-60
2022/04/14 11:30:44;;;;;;;4.90;1.33;;;;;;;;;;4982913;28;20027;-61
2022/04/14 11:33:36;;;;;;;3.25;0.60;;;;;;;;;;4982589;28;20474;-61
2022/04/14 11:36:10;;;;;;;3.97;1.02;;;;;;;;;;4985992;28;20483;-61
2022/04/14 11:38:55;;;;;;;3.03;1.10;;;;;;;;;;4983733;28;20041;-60
2022/04/14 11:41:39;;;;;;;3.38;1.00;;;;;;;;;;4985440;28;20121;-61
2022/04/14 11:44:08;;;;;;;3.30;1.13;;;;;;;;;;4983108;28;20065;-61
2022/04/14 11:46:37;;;;;;;2.60;0.98;;;;;;;;;;4976430;28;20026;-60
2022/04/14 11:49:04;;;;;;;7.32;2.17;;;;;;;;;;4989145;28;20023;-61
2022/04/14 11:51:30;;;;;;;5.63;2.00;;;;;;;;;;4984609;28;20391;-61
2022/04/14 11:53:56;;;;;;;6.00;1.88;;;;;;;;;;4987329;28;20042;-60
2022/04/14 11:56:25;;;;;;;5.22;2.63;;;;;;;;;;4985887;28;20046;-60
2022/04/14 11:58:52;;;;;;;6.15;2.53;;;;;;;;;;4988563;28;20544;-60
2022/04/14 12:01:18;;;;;;;6.20;2.13;;;;;;;;;;4980795;28;20160;-61
2022/04/14 12:03:44;;;;;;;9.48;2.20;;;;;;;;;;4989443;28;20034;-60
2022/04/14 12:06:12;;;;;;;7.38;1.92;;;;;;;;;;4986143;28;20050;-61
2022/04/14 12:08:38;;;;;;;5.80;1.80;;;;;;;;;;4986697;28;20042;-61
2022/04/14 12:11:10;;;;;;;6.07;2.15;;;;;;;;;;4982809;28;20105;-60
2022/04/14 12:13:37;;;;;;;6.70;2.13;;;;;;;;;;4989442;28;20026;-60
2022/04/14 12:16:05;;;;;;;3.38;1.92;;;;;;;;;;4978697;28;20080;-60
2022/04/14 12:18:31;;;;;;;5.55;2.15;;;;;;;;;;4982690;28;20141;-60
2022/04/14 12:20:57;;;;;;;7.28;2.30;;;;;;;;;;4986395;28;20068;-60
2022/04/14 12:23:24;;;;;;;6.80;2.00;;;;;;;;;;4985625;28;20030;-60
2022/04/14 12:25:52;;;;;;;7.40;2.38;;;;;;;;;;4980074;28;20030;-60
2022/04/14 12:28:19;;;;;;;7.55;2.30;;;;;;;;;;4988028;28;20030;-61
2022/04/14 12:30:45;;;;;;;10.52;2.75;;;;;;;;;;4981561;28;20110;-61
2022/04/14 12:33:11;;;;;;;5.78;2.28;;;;;;;;;;4988286;28;20027;-61
2022/04/14 12:35:39;;;;;;;3.53;1.70;;;;;;;;;;4983399;28;20035;-61
2022/04/14 12:38:28;;;;;;;6.50;2.20;;;;;;;;;;4985393;28;20547;-61
2022/04/14 12:41:07;;;;;;;5.85;2.25;;;;;;;;;;4983993;28;20030;-61
2022/04/14 12:43:37;;;;;;;6.47;1.80;;;;;;;;;;4985570;28;20072;-61
2022/04/14 12:46:35;;;;;;;10.32;2.63;;;;;;;;;;4981292;28;20022;-61
2022/04/14 12:49:12;;;;;;;8.85;2.20;;;;;;;;;;5013342;28;20047;-61
2022/04/14 12:51:42;;;;;;;4.30;1.60;;;;;;;;;;4980078;28;20062;-61
2022/04/14 12:54:09;;;;;;;5.07;2.08;;;;;;;;;;4981953;28;20042;-61
2022/04/14 12:56:36;;;;;;;6.70;1.65;;;;;;;;;;4989727;28;20490;-61
2022/04/14 12:59:15;;;;;;;3.92;1.60;;;;;;;;;;4985518;28;20500;-61
2022/04/14 13:01:59;;;;;;;3.83;2.15;;;;;;;;;;4983958;28;20033;-60
2022/04/14 13:04:31;;;;;;;5.90;1.83;;;;;;;;;;4980957;28;20046;-61
2022/04/14 13:06:58;;;;;;;6.70;1.90;;;;;;;;;;4987056;28;20031;-61
2022/04/14 13:09:24;;;;;;;4.03;2.03;;;;;;;;;;4977546;28;20286;-61
2022/04/14 13:11:50;;;;;;;3.88;1.60;;;;;;;;;;4982229;28;20380;-61
2022/04/14 13:14:16;;;;;;;8.30;1.73;;;;;;;;;;4977094;28;20023;-61
2022/04/14 13:16:44;;;;;;;5.72;2.10;;;;;;;;;;4983690;28;20454;-61
2022/04/14 13:19:11;;;;;;;5.95;2.53;;;;;;;;;;4981504;28;20117;-61
2022/04/14 13:21:37;;;;;;;8.70;2.72;;;;;;;;;;4980461;28;20038;-61
2022/04/14 13:24:03;;;;;;;5.53;1.83;;;;;;;;;;4984002;28;20027;-61
2022/04/14 13:26:29;;;;;;;4.07;1.65;;;;;;;;;;4975865;28;20395;-61
2022/04/14 13:28:56;;;;;;;6.28;1.67;;;;;;;;;;4982536;28;20044;-61
2022/04/14 13:31:22;;;;;;;6.05;2.03;;;;;;;;;;4978716;28;20069;-60
2022/04/14 13:33:48;;;;;;;5.82;1.73;;;;;;;;;;4976269;28;20102;-60
2022/04/14 13:36:14;;;;;;;3.67;1.73;;;;;;;;;;4978155;28;20031;-61
2022/04/14 13:38:40;;;;;;;4.03;1.35;;;;;;;;;;4979139;28;20026;-61
2022/04/14 13:41:06;;;;;;;9.27;1.80;;;;;;;;;;4978687;28;20521;-61
2022/04/14 13:43:32;;;;;;;5.05;1.52;;;;;;;;;;4984937;28;20038;-61
2022/04/14 13:45:58;;;;;;;4.53;1.73;;;;;;;;;;4982395;28;20022;-61
2022/04/14 13:48:24;;;;;;;4.55;1.70;;;;;;;;;;4983680;28;20033;-61
2022/04/14 13:50:51;;;;;;;7.47;2.03;;;;;;;;;;4979454;28;20034;-61
2022/04/14 13:53:17;;;;;;;6.93;2.25;;;;;;;;;;4981103;28;20091;-61
2022/04/14 13:55:43;;;;;;;7.10;1.77;;;;;;;;;;4983798;28;20092;-61
2022/04/14 13:58:09;;;;;;;7.30;1.80;;;;;;;;;;4977068;28;20050;-61
2022/04/14 14:00:36;;;;;;;7.80;1.90;;;;;;;;;;4983622;28;20118;-61
2022/04/14 14:03:02;;;;;;;5.35;1.70;;;;;;;;;;4981322;28;20059;-61
2022/04/14 14:05:28;;;;;;;4.47;1.75;;;;;;;;;;4980511;28;20496;-61
2022/04/14 14:07:55;;;;;;;5.15;1.60;;;;;;;;;;4981866;28;20087;-61
2022/04/14 14:10:21;;;;;;;4.55;1.70;;;;;;;;;;4979434;28;20031;-61
2022/04/14 14:12:47;;;;;;;3.28;1.83;;;;;;;;;;4979931;28;20037;-61
2022/04/14 14:15:13;;;;;;;4.32;1.55;;;;;;;;;;4983998;28;20015;-61
2022/04/14 14:17:39;;;;;;;9.55;2.08;;;;;;;;;;4983529;28;20022;-61
2022/04/14 14:20:05;;;;;;;3.63;2.10;;;;;;;;;;4988022;28;20038;-61
2022/04/14 14:22:32;;;;;;;6.20;2.35;;;;;;;;;;4973013;28;20027;-61
2022/04/14 14:24:58;;;;;;;8.25;2.05;;;;;;;;;;4988053;28;20092;-61
2022/04/14 14:27:24;;;;;;;7.40;2.17;;;;;;;;;;4976867;28;20049;-61
2022/04/14 14:29:50;;;;;;;12.77;2.40;;;;;;;;;;4975386;28;20034;-61
2022/04/14 14:32:16;;;;;;;8.35;3.22;;;;;;;;;;4973412;28;20385;-61
2022/04/14 14:34:42;;;;;;;4.95;2.25;;;;;;;;;;4978997;28;20038;-61
2022/04/14 14:37:08;;;;;;;10.82;2.95;;;;;;;;;;4972308;28;20109;-61
2022/04/14 14:39:35;;;;;;;7.28;2.15;;;;;;;;;;4976689;28;20512;-61
2022/04/14 14:42:01;;;;;;;5.82;2.03;;;;;;;;;;4974571;28;20030;-61
2022/04/14 14:44:27;;;;;;;5.78;2.25;;;;;;;;;;4972263;28;20034;-61